createdAt,value
2023-02-04T00:08:40.876Z,2.76
2023-02-04T00:19:06.464Z,2.70
2023-02-04T00:30:13.806Z,2.67
2023-02-04T00:40:20.679Z,2.73
2023-02-04T00:50:25.412Z,2.83
2023-02-04T01:00:30.126Z,2.94
2023-02-04T01:10:34.946Z,3.01
2023-02-04T01:20:42.626Z,2.93
2023-02-04T01:30:52.711Z,2.85
2023-02-04T01:41:09.429Z,2.83
2023-02-04T01:51:17.695Z,2.75
2023-02-04T02:01:38.255Z,2.81
2023-02-04T02:11:44.942Z,2.89
2023-02-04T02:22:26.068Z,2.72
2023-02-04T02:32:30.426Z,2.67
2023-02-04T02:43:12.646Z,2.62
2023-02-04T02:53:19.833Z,2.65
2023-02-04T03:03:29.987Z,2.74
2023-02-04T03:13:37.957Z,2.81
2023-02-04T03:23:42.410Z,2.80
2023-02-04T03:33:50.570Z,2.59
2023-02-04T03:43:57.605Z,2.40
2023-02-04T03:54:28.699Z,2.25
2023-02-04T04:04:55.501Z,2.11
2023-02-04T04:15:11.597Z,2.03
2023-02-04T04:25:15.734Z,1.99
2023-02-04T04:35:20.394Z,1.96
2023-02-04T04:45:24.440Z,1.79
2023-02-04T04:55:28.853Z,1.84
2023-02-04T05:05:32.772Z,1.89
2023-02-04T05:15:36.824Z,1.83
2023-02-04T05:25:40.928Z,1.08
2023-02-04T05:35:44.771Z,0.30
2023-02-04T05:45:51.141Z,-0.32
2023-02-04T05:55:55.123Z,-0.71
2023-02-04T06:06:02.445Z,-1.00
2023-02-04T06:16:09.654Z,-1.26
2023-02-04T06:26:13.877Z,-1.49
2023-02-04T06:36:17.917Z,-1.66
2023-02-04T06:46:22.195Z,-1.73
2023-02-04T06:56:29.615Z,-1.77
2023-02-04T07:06:33.617Z,-1.78
2023-02-04T07:16:38.385Z,-1.82
2023-02-04T07:26:42.339Z,-1.92
2023-02-04T07:36:46.659Z,-2.01
2023-02-04T07:47:07.249Z,-2.09
2023-02-04T07:57:11.708Z,-2.01
2023-02-04T08:07:44.713Z,-1.91
2023-02-04T08:18:11.819Z,-1.91
2023-02-04T08:28:31.839Z,-2.04
2023-02-04T08:38:38.982Z,-2.15
2023-02-04T08:48:45.771Z,-2.13
2023-02-04T08:58:50.272Z,-2.04
2023-02-04T09:09:22.338Z,-1.91
2023-02-04T09:19:27.869Z,-1.63
2023-02-04T09:29:48.518Z,-1.51
2023-02-04T09:40:17.475Z,-1.46
2023-02-04T09:50:28.033Z,-1.40
2023-02-04T10:00:38.157Z,-1.19
2023-02-04T10:10:52.892Z,-1.06
2023-02-04T10:21:30.274Z,-0.76
2023-02-04T10:31:43.375Z,-0.76
2023-02-04T10:42:01.367Z,-0.59
2023-02-04T10:52:29.724Z,-0.26
2023-02-04T11:02:55.477Z,-0.48
2023-02-04T11:13:03.403Z,-0.26
2023-02-04T11:23:39.927Z,-0.28
2023-02-04T11:34:08.278Z,0.08
2023-02-04T11:44:17.256Z,0.25
2023-02-04T11:54:34.339Z,0.49
2023-02-04T12:04:48.671Z,0.29
2023-02-04T12:15:24.357Z,0.13
2023-02-04T12:25:47.824Z,0.19
2023-02-04T12:36:03.856Z,0.18
2023-02-04T12:46:18.385Z,-0.03
2023-02-04T12:56:53.892Z,0.02
2023-02-04T13:08:00.764Z,-0.32
2023-02-04T13:18:34.481Z,-0.59
2023-02-04T13:28:54.400Z,-1.00
2023-02-04T13:39:11.182Z,-0.99
2023-02-04T13:49:31.011Z,-1.28
2023-02-04T14:00:02.027Z,-1.67
2023-02-04T14:10:56.915Z,-1.76
2023-02-04T14:21:54.871Z,-1.81
2023-02-04T14:32:02.226Z,-1.56
2023-02-04T14:42:24.873Z,-1.60
2023-02-04T14:52:35.856Z,-1.61
2023-02-04T15:03:09.543Z,-1.78
2023-02-04T15:13:14.358Z,-1.79
2023-02-04T15:23:51.969Z,-1.77
2023-02-04T15:34:20.334Z,-1.76
2023-02-04T15:45:10.830Z,-1.81
2023-02-04T15:56:19.954Z,-1.89
2023-02-04T16:07:08.334Z,-1.87
2023-02-04T16:17:37.181Z,-1.93
2023-02-04T16:28:20.735Z,-1.98
2023-02-04T16:38:59.819Z,-2.04
2023-02-04T16:49:38.270Z,-2.02
2023-02-04T17:00:37.658Z,-2.03
2023-02-04T17:11:37.495Z,-1.94
2023-02-04T17:22:38.526Z,-1.92
2023-02-04T17:33:27.665Z,-1.84
2023-02-04T17:44:25.274Z,-1.81
2023-02-04T17:55:43.010Z,-1.77
2023-02-04T18:05:58.788Z,-1.76
2023-02-04T18:16:42.079Z,-1.85
2023-02-04T18:27:06.023Z,-1.95
2023-02-04T18:37:52.178Z,-1.94
2023-02-04T18:48:20.495Z,-2.07
2023-02-04T18:58:39.438Z,-2.14
2023-02-04T19:09:44.752Z,-2.08
2023-02-04T19:20:22.225Z,-2.03
2023-02-04T19:31:16.400Z,-2.01
2023-02-04T19:42:01.822Z,-2.15
2023-02-04T19:53:02.615Z,-2.74
2023-02-04T20:03:48.047Z,-3.00
2023-02-04T20:14:22.401Z,-3.07
2023-02-04T20:25:20.223Z,-3.00
2023-02-04T20:35:53.500Z,-2.96
2023-02-04T20:46:24.180Z,-2.97
2023-02-04T20:57:00.716Z,-2.93
2023-02-04T21:07:46.716Z,-2.95
2023-02-04T21:18:58.707Z,-2.98
2023-02-04T21:29:38.715Z,-3.00
2023-02-04T21:40:53.079Z,-2.98
2023-02-04T21:51:27.135Z,-3.02
2023-02-04T22:02:45.167Z,-3.02
2023-02-04T22:14:00.185Z,-2.94
2023-02-04T22:24:48.287Z,-3.10
2023-02-04T22:35:17.472Z,-3.28
2023-02-04T22:46:15.643Z,-3.32
2023-02-04T22:57:05.270Z,-3.33
2023-02-04T23:08:23.123Z,-3.41
2023-02-04T23:19:40.052Z,-3.41
2023-02-04T23:30:58.911Z,-3.40
2023-02-04T23:42:05.579Z,-3.40
2023-02-04T23:53:05.664Z,-3.35
